createdAt,value
2022-10-12T00:00:29.194Z,99.90
2022-10-12T00:03:17.710Z,99.90
2022-10-12T00:06:08.160Z,99.90
2022-10-12T00:08:56.519Z,99.90
2022-10-12T00:11:44.875Z,99.90
2022-10-12T00:14:36.710Z,99.90
2022-10-12T00:17:25.106Z,99.90
2022-10-12T00:20:13.934Z,99.90
2022-10-12T00:23:02.335Z,99.90
2022-10-12T00:25:51.109Z,99.90
2022-10-12T00:28:39.598Z,99.90
2022-10-12T00:31:29.683Z,99.90
2022-10-12T00:34:18.065Z,99.90
2022-10-12T00:37:06.400Z,99.90
2022-10-12T00:39:54.739Z,99.90
2022-10-12T00:42:43.036Z,99.90
2022-10-12T00:45:31.379Z,99.90
2022-10-12T00:48:21.128Z,99.90
2022-10-12T00:51:09.524Z,99.90
2022-10-12T00:53:59.915Z,99.90
2022-10-12T00:56:48.434Z,99.90
2022-10-12T00:59:40.261Z,99.90
2022-10-12T01:02:30.424Z,99.90
2022-10-12T01:05:20.328Z,99.90
2022-10-12T01:08:08.715Z,99.90
2022-10-12T01:10:57.540Z,99.90
2022-10-12T01:13:45.852Z,99.90
2022-10-12T01:16:37.383Z,99.90
2022-10-12T01:19:43.647Z,99.90
2022-10-12T01:22:35.116Z,99.90
2022-10-12T01:25:31.598Z,99.90
2022-10-12T01:28:21.948Z,99.90
2022-10-12T01:31:15.593Z,99.90
2022-10-12T01:34:06.434Z,99.90
2022-10-12T01:37:01.526Z,99.90
2022-10-12T01:39:53.098Z,99.90
2022-10-12T01:42:41.921Z,99.90
2022-10-12T01:45:30.352Z,99.90
2022-10-12T01:48:20.045Z,99.90
2022-10-12T01:51:08.410Z,99.90
2022-10-12T01:54:01.654Z,99.90
2022-10-12T01:56:55.897Z,99.90
2022-10-12T01:59:55.990Z,99.90
2022-10-12T02:02:52.347Z,99.90
2022-10-12T02:05:45.713Z,99.90
2022-10-12T02:08:36.767Z,99.90
2022-10-12T02:11:26.441Z,99.90
2022-10-12T02:14:17.199Z,99.90
2022-10-12T02:17:06.490Z,99.90
2022-10-12T02:19:56.789Z,99.90
2022-10-12T02:22:48.163Z,99.90
2022-10-12T02:25:36.515Z,99.90
2022-10-12T02:28:25.948Z,99.90
2022-10-12T02:31:19.634Z,99.90
2022-10-12T02:34:11.649Z,99.90
2022-10-12T02:37:07.356Z,99.90
2022-10-12T02:40:00.892Z,99.90
2022-10-12T02:43:11.880Z,99.90
2022-10-12T02:46:00.303Z,99.90
2022-10-12T02:48:49.291Z,99.90
2022-10-12T02:51:37.686Z,99.90
2022-10-12T02:54:26.149Z,99.90
2022-10-12T02:57:15.847Z,99.90
2022-10-12T03:00:04.803Z,99.90
2022-10-12T03:02:53.127Z,99.90
2022-10-12T03:05:41.515Z,99.90
2022-10-12T03:08:29.894Z,99.90
2022-10-12T03:11:18.255Z,99.90
2022-10-12T03:14:07.932Z,99.90
2022-10-12T03:16:56.293Z,99.90
2022-10-12T03:19:44.630Z,99.90
2022-10-12T03:22:33.015Z,99.90
2022-10-12T03:25:21.362Z,99.90
2022-10-12T03:28:09.734Z,99.90
2022-10-12T03:30:59.571Z,99.90
2022-10-12T03:33:47.923Z,99.90
2022-10-12T03:36:36.319Z,99.90
2022-10-12T03:39:24.685Z,99.90
2022-10-12T03:42:13.914Z,99.90
2022-10-12T03:45:02.275Z,99.90
2022-10-12T03:47:52.067Z,99.90
2022-10-12T03:50:40.448Z,99.90
2022-10-12T03:53:28.910Z,99.90
2022-10-12T03:56:17.294Z,99.90
2022-10-12T03:59:05.741Z,99.90
2022-10-12T04:01:54.213Z,99.90
2022-10-12T04:04:44.210Z,99.90
2022-10-12T04:07:32.595Z,99.90
2022-10-12T04:10:21.015Z,99.90
2022-10-12T04:13:09.424Z,99.90
2022-10-12T04:16:02.747Z,99.90
2022-10-12T04:18:51.118Z,99.90
2022-10-12T04:21:40.998Z,99.90
2022-10-12T04:24:29.396Z,99.90
2022-10-12T04:27:17.794Z,99.90
2022-10-12T04:30:07.556Z,99.90
2022-10-12T04:32:56.477Z,99.90
2022-10-12T04:35:45.159Z,99.90
2022-10-12T04:38:34.901Z,99.90
2022-10-12T04:41:23.442Z,99.90
2022-10-12T04:44:11.873Z,99.90
2022-10-12T04:47:00.401Z,99.90
2022-10-12T04:49:48.813Z,99.90
2022-10-12T04:52:37.173Z,99.90
2022-10-12T04:55:27.382Z,99.90
2022-10-12T04:58:15.907Z,99.90
2022-10-12T05:01:04.335Z,99.90
2022-10-12T05:03:52.675Z,99.90
2022-10-12T05:06:41.074Z,99.90
2022-10-12T05:09:29.432Z,99.90
2022-10-12T05:12:19.189Z,99.90
2022-10-12T05:15:09.220Z,99.90
2022-10-12T05:17:57.744Z,99.90
2022-10-12T05:20:46.093Z,99.90
2022-10-12T05:23:34.462Z,99.90
2022-10-12T05:26:22.802Z,99.90
2022-10-12T05:29:12.572Z,99.90
2022-10-12T05:32:01.234Z,99.90
2022-10-12T05:34:49.585Z,99.90
2022-10-12T05:37:38.173Z,99.90
2022-10-12T05:40:26.653Z,99.90
2022-10-12T05:43:15.029Z,99.90
2022-10-12T05:46:04.756Z,99.90
2022-10-12T05:48:53.085Z,99.90
2022-10-12T05:51:41.611Z,99.90
2022-10-12T05:54:29.918Z,99.90
2022-10-12T05:57:19.321Z,99.90
2022-10-12T06:00:09.458Z,99.90
2022-10-12T06:03:02.121Z,99.90
2022-10-12T06:05:30.123Z,99.90
2022-10-12T06:07:58.178Z,99.90
2022-10-12T06:10:29.828Z,99.90
2022-10-12T06:12:58.124Z,99.90
2022-10-12T06:15:26.215Z,99.90
2022-10-12T06:17:54.240Z,99.90
2022-10-12T06:20:23.651Z,99.90
2022-10-12T06:22:51.704Z,99.90
2022-10-12T06:25:19.737Z,99.90
2022-10-12T06:27:47.786Z,99.90
2022-10-12T06:30:15.972Z,99.90
2022-10-12T06:32:44.118Z,99.90
2022-10-12T06:35:12.268Z,99.90
2022-10-12T06:37:50.284Z,99.90
2022-10-12T06:40:19.239Z,99.90
2022-10-12T06:42:47.278Z,99.90
2022-10-12T06:45:15.713Z,99.90
2022-10-12T06:47:43.877Z,99.90
2022-10-12T06:50:12.091Z,99.90
2022-10-12T06:52:43.480Z,99.90
2022-10-12T06:55:12.478Z,99.90
2022-10-12T06:57:40.575Z,99.90
2022-10-12T07:00:10.131Z,99.90
2022-10-12T07:02:38.379Z,99.90
2022-10-12T07:05:08.477Z,99.90
2022-10-12T07:07:37.482Z,99.90
2022-10-12T07:10:08.601Z,99.90
2022-10-12T07:12:37.272Z,99.90
2022-10-12T07:15:07.150Z,99.90
2022-10-12T07:17:35.516Z,99.90
2022-10-12T07:20:04.186Z,99.90
2022-10-12T07:22:32.276Z,99.90
2022-10-12T07:25:00.481Z,99.90
2022-10-12T07:27:29.915Z,99.90
2022-10-12T07:29:58.220Z,99.90
2022-10-12T07:32:26.385Z,99.90
2022-10-12T07:34:54.481Z,99.90
2022-10-12T07:37:22.604Z,99.90
2022-10-12T07:39:50.728Z,99.90
2022-10-12T07:42:19.706Z,99.90
2022-10-12T07:44:49.423Z,99.90
2022-10-12T07:47:17.790Z,99.90
2022-10-12T07:49:45.928Z,99.90
2022-10-12T07:52:14.126Z,99.90
2022-10-12T07:54:42.321Z,99.90
2022-10-12T07:57:10.453Z,99.90
2022-10-12T07:59:38.682Z,99.90
2022-10-12T08:02:08.150Z,99.90
2022-10-12T08:04:36.294Z,99.90
2022-10-12T08:07:04.523Z,99.90
2022-10-12T08:09:32.670Z,99.90
2022-10-12T08:12:00.731Z,99.90
2022-10-12T08:14:28.923Z,99.90
2022-10-12T08:16:56.976Z,99.90
2022-10-12T08:19:26.489Z,99.90
2022-10-12T08:21:54.551Z,99.90
2022-10-12T08:24:22.825Z,99.90
2022-10-12T08:26:50.930Z,99.90
2022-10-12T08:29:19.035Z,99.90
2022-10-12T08:31:49.394Z,99.90
2022-10-12T08:34:17.705Z,99.90
2022-10-12T08:36:47.799Z,99.90
2022-10-12T08:39:15.962Z,99.90
2022-10-12T08:41:51.434Z,99.90
2022-10-12T08:44:51.805Z,99.90
2022-10-12T08:47:22.688Z,99.90
2022-10-12T08:49:50.779Z,99.90
2022-10-12T08:52:31.472Z,99.90
2022-10-12T08:55:02.137Z,99.90
2022-10-12T08:57:30.211Z,99.90
2022-10-12T08:59:58.647Z,99.90
2022-10-12T09:02:39.608Z,99.90
2022-10-12T09:05:09.637Z,99.90
2022-10-12T09:07:43.223Z,99.90
2022-10-12T09:10:26.366Z,99.90
2022-10-12T09:13:00.463Z,99.90
2022-10-12T09:15:30.725Z,99.90
2022-10-12T09:17:59.777Z,99.90
2022-10-12T09:20:29.850Z,99.90
2022-10-12T09:23:02.252Z,99.90
2022-10-12T09:25:30.390Z,99.90
2022-10-12T09:28:09.042Z,99.90
2022-10-12T09:30:38.477Z,99.90
2022-10-12T09:33:15.838Z,99.90
2022-10-12T09:35:44.011Z,99.90
2022-10-12T09:38:13.424Z,99.90
2022-10-12T09:40:41.521Z,99.90
2022-10-12T09:43:09.709Z,99.90
2022-10-12T09:45:37.763Z,99.90
2022-10-12T09:48:14.742Z,99.90
2022-10-12T09:50:45.433Z,99.90
2022-10-12T09:53:28.035Z,99.90
2022-10-12T09:55:59.713Z,99.90
2022-10-12T09:58:28.636Z,99.90
2022-10-12T10:01:16.364Z,99.90
2022-10-12T10:03:44.579Z,99.90
2022-10-12T10:06:15.199Z,99.90
2022-10-12T10:08:46.274Z,99.90
2022-10-12T10:11:19.876Z,99.90
2022-10-12T10:13:50.588Z,99.90
2022-10-12T10:16:18.617Z,99.90
2022-10-12T10:18:49.105Z,99.90
2022-10-12T10:21:25.124Z,99.90
2022-10-12T10:23:56.463Z,99.90
2022-10-12T10:26:25.665Z,99.90
2022-10-12T10:28:57.865Z,99.90
2022-10-12T10:31:28.036Z,99.90
2022-10-12T10:34:21.366Z,99.90
2022-10-12T10:36:51.427Z,99.90
2022-10-12T10:39:24.137Z,99.90
2022-10-12T10:41:53.331Z,99.90
2022-10-12T10:44:32.148Z,99.90
2022-10-12T10:47:02.147Z,99.90
2022-10-12T10:49:38.397Z,99.90
2022-10-12T10:52:07.176Z,99.90
2022-10-12T10:54:38.561Z,99.90
2022-10-12T10:57:12.127Z,99.90
2022-10-12T10:59:52.753Z,99.90
2022-10-12T11:02:30.876Z,99.90
2022-10-12T11:05:06.844Z,99.90
2022-10-12T11:07:38.541Z,99.90
2022-10-12T11:10:18.396Z,99.90
2022-10-12T11:12:49.608Z,99.90
2022-10-12T11:15:21.841Z,99.90
2022-10-12T11:17:51.285Z,99.90
2022-10-12T11:20:38.155Z,99.90
2022-10-12T11:23:15.053Z,99.90
2022-10-12T11:25:49.275Z,99.90
2022-10-12T11:28:17.978Z,99.90
2022-10-12T11:30:49.328Z,99.90
2022-10-12T11:33:22.336Z,99.90
2022-10-12T11:35:50.577Z,99.90
2022-10-12T11:38:22.366Z,99.90
2022-10-12T11:41:33.892Z,99.90
2022-10-12T11:43:47.292Z,99.90
2022-10-12T11:46:17.367Z,99.90
2022-10-12T11:48:48.948Z,99.90
2022-10-12T11:51:16.955Z,99.90
2022-10-12T11:53:52.374Z,99.90
2022-10-12T11:56:24.261Z,99.90
2022-10-12T11:59:01.090Z,99.90
2022-10-12T12:01:50.814Z,99.90
2022-10-12T12:04:43.320Z,99.90
2022-10-12T12:07:44.984Z,99.90
2022-10-12T12:10:54.078Z,99.90
2022-10-12T12:13:27.219Z,99.90
2022-10-12T12:16:34.608Z,99.90
2022-10-12T12:19:37.944Z,99.90
2022-10-12T12:22:34.761Z,99.90
2022-10-12T12:25:24.245Z,99.90
2022-10-12T12:27:53.657Z,99.90
2022-10-12T12:30:33.427Z,99.90
2022-10-12T12:33:03.196Z,99.90
2022-10-12T12:35:36.282Z,99.90
2022-10-12T12:38:21.457Z,99.90
2022-10-12T12:41:15.108Z,99.90
2022-10-12T12:43:58.157Z,99.90
2022-10-12T12:47:39.946Z,99.90
2022-10-12T12:49:57.211Z,99.90
2022-10-12T12:52:28.779Z,99.70
2022-10-12T12:55:30.131Z,99.20
2022-10-12T12:58:25.502Z,98.90
2022-10-12T13:01:05.077Z,99.00
2022-10-12T13:04:13.456Z,99.20
2022-10-12T13:07:43.889Z,98.70
2022-10-12T13:10:24.503Z,98.20
2022-10-12T13:13:20.328Z,98.30
2022-10-12T13:15:59.904Z,98.00
2022-10-12T13:18:48.833Z,97.90
2022-10-12T13:21:19.881Z,97.40
2022-10-12T13:23:50.284Z,97.40
2022-10-12T13:26:22.642Z,97.20
2022-10-12T13:28:51.031Z,97.60
2022-10-12T13:31:21.781Z,97.30
2022-10-12T13:33:59.345Z,96.40
2022-10-12T13:36:29.295Z,96.20
2022-10-12T13:38:58.085Z,96.80
2022-10-12T13:41:26.584Z,96.50
2022-10-12T13:43:55.554Z,96.70
2022-10-12T13:46:38.771Z,97.00
2022-10-12T13:49:17.600Z,96.70
2022-10-12T13:51:47.397Z,96.20
2022-10-12T13:54:21.143Z,96.70
2022-10-12T13:56:50.206Z,96.90
2022-10-12T13:59:20.140Z,96.70
2022-10-12T14:01:54.393Z,96.80
2022-10-12T14:04:24.173Z,96.50
2022-10-12T14:07:00.027Z,96.80
2022-10-12T14:09:29.117Z,96.60
2022-10-12T14:11:57.132Z,96.80
2022-10-12T14:14:32.786Z,96.60
2022-10-12T14:17:00.840Z,96.40
2022-10-12T14:19:44.922Z,96.20
2022-10-12T14:22:13.554Z,95.70
2022-10-12T14:24:41.690Z,96.10
2022-10-12T14:27:09.823Z,96.10
2022-10-12T14:29:42.541Z,96.20
2022-10-12T14:32:42.518Z,96.30
2022-10-12T14:35:24.763Z,96.10
2022-10-12T14:37:53.681Z,96.20
2022-10-12T14:40:32.487Z,96.40
2022-10-12T14:43:03.479Z,96.10
2022-10-12T14:45:31.783Z,96.10
2022-10-12T14:48:00.067Z,96.20
2022-10-12T14:50:31.395Z,96.20
2022-10-12T14:53:01.663Z,96.00
2022-10-12T14:55:31.867Z,96.20
2022-10-12T14:58:00.030Z,96.40
2022-10-12T15:00:29.849Z,96.60
2022-10-12T15:02:58.131Z,96.70
2022-10-12T15:05:28.826Z,96.60
2022-10-12T15:07:58.188Z,96.80
2022-10-12T15:10:26.523Z,96.60
2022-10-12T16:39:10.663Z,99.90
2022-10-12T16:41:38.676Z,99.90
2022-10-12T16:44:06.757Z,99.90
2022-10-12T16:46:36.814Z,99.90
2022-10-12T16:49:04.955Z,99.90
2022-10-12T16:51:33.053Z,99.90
2022-10-12T16:54:01.185Z,99.90
2022-10-12T16:56:30.635Z,99.90
2022-10-12T16:58:59.561Z,99.90
2022-10-12T17:01:27.635Z,99.90
2022-10-12T17:03:55.779Z,99.90
2022-10-12T17:06:23.935Z,99.90
2022-10-12T17:08:51.974Z,99.90
2022-10-12T17:11:21.206Z,99.90
2022-10-12T17:13:50.573Z,99.90
2022-10-12T17:16:36.585Z,99.90
2022-10-12T17:19:04.680Z,99.90
2022-10-12T17:21:32.786Z,99.90
2022-10-12T17:24:02.719Z,99.90
2022-10-12T17:26:30.883Z,99.90
2022-10-12T17:29:00.402Z,99.90
2022-10-12T17:31:28.650Z,99.90
2022-10-12T17:33:57.579Z,99.90
2022-10-12T17:36:28.237Z,99.90
2022-10-12T17:38:57.213Z,99.90
2022-10-12T17:41:25.336Z,99.90
2022-10-12T17:43:53.416Z,99.90
2022-10-12T17:46:23.057Z,99.90
2022-10-12T17:48:51.680Z,99.90
2022-10-12T17:51:19.815Z,99.90
2022-10-12T17:53:47.892Z,99.90
2022-10-12T17:56:17.403Z,99.90
2022-10-12T17:58:45.463Z,99.90
2022-10-12T18:01:15.519Z,99.90
2022-10-12T18:03:47.214Z,99.90
2022-10-12T18:06:17.183Z,99.90
2022-10-12T18:08:45.420Z,99.90
2022-10-12T18:11:13.595Z,99.90
2022-10-12T18:13:41.784Z,99.90
2022-10-12T18:16:10.470Z,99.90
2022-10-12T18:18:38.621Z,99.90
2022-10-12T18:21:08.690Z,99.90
2022-10-12T18:23:36.883Z,99.90
2022-10-12T18:26:05.324Z,99.90
2022-10-12T18:28:33.474Z,99.90
2022-10-12T18:31:02.778Z,99.90
2022-10-12T18:33:30.922Z,99.90
2022-10-12T18:36:04.156Z,99.90
2022-10-12T18:38:33.845Z,99.90
2022-10-12T18:41:04.855Z,99.90
2022-10-12T18:43:32.993Z,99.90
2022-10-12T18:46:01.049Z,99.90
2022-10-12T18:48:29.102Z,99.90
2022-10-12T18:50:57.528Z,99.90
2022-10-12T18:53:28.069Z,99.90
2022-10-12T18:55:57.517Z,99.90
2022-10-12T18:58:25.663Z,99.90
2022-10-12T19:00:55.061Z,99.90
2022-10-12T19:03:23.232Z,99.90
2022-10-12T19:05:51.332Z,99.90
2022-10-12T19:08:19.522Z,99.90
2022-10-12T19:10:47.527Z,99.90
2022-10-12T19:13:16.914Z,99.90
2022-10-12T19:15:45.198Z,99.90
2022-10-12T19:18:13.245Z,99.90
2022-10-12T19:20:41.330Z,99.90
2022-10-12T19:23:09.531Z,99.90
2022-10-12T19:25:38.877Z,99.90
2022-10-12T19:28:06.943Z,99.90
2022-10-12T19:30:39.666Z,99.90
2022-10-12T19:33:07.752Z,99.90
2022-10-12T19:35:38.378Z,99.90
2022-10-12T19:38:06.524Z,99.90
2022-10-12T19:40:37.493Z,99.90
2022-10-12T19:43:06.792Z,99.90
2022-10-12T19:45:40.657Z,99.90
2022-10-12T19:48:08.982Z,99.90
2022-10-12T19:50:37.224Z,99.90
2022-10-12T19:53:05.423Z,99.90
2022-10-12T19:55:34.069Z,99.90
2022-10-12T19:58:02.369Z,99.90
2022-10-12T20:00:30.527Z,99.90
2022-10-12T20:03:18.583Z,99.90
2022-10-12T20:06:09.207Z,99.90
2022-10-12T20:08:59.023Z,99.90
2022-10-12T20:11:47.375Z,99.90
2022-10-12T20:14:35.747Z,99.90
2022-10-12T20:17:24.072Z,99.90
2022-10-12T20:20:14.125Z,99.90
2022-10-12T20:23:02.498Z,99.90
2022-10-12T20:25:52.156Z,99.90
2022-10-12T20:28:40.549Z,99.90
2022-10-12T20:31:29.361Z,99.90
2022-10-12T20:34:17.733Z,99.90
2022-10-12T20:37:07.474Z,99.90
2022-10-12T20:39:55.844Z,99.90
2022-10-12T20:42:44.249Z,99.90
2022-10-12T20:45:32.692Z,99.90
2022-10-12T20:48:21.161Z,99.90
2022-10-12T20:51:10.157Z,99.90
2022-10-12T20:54:00.986Z,99.90
2022-10-12T20:56:51.876Z,99.90
2022-10-12T20:59:42.043Z,99.90
2022-10-12T21:02:30.429Z,99.90
2022-10-12T21:05:18.875Z,99.90
2022-10-12T21:08:07.207Z,99.90
2022-10-12T21:10:56.954Z,99.90
2022-10-12T21:13:46.007Z,99.90
2022-10-12T21:16:34.388Z,99.90
2022-10-12T21:19:23.010Z,99.90
2022-10-12T21:22:11.440Z,99.90
2022-10-12T21:24:59.812Z,99.90
2022-10-12T21:27:49.544Z,99.90
2022-10-12T21:30:38.551Z,99.90
2022-10-12T21:33:28.287Z,99.90
2022-10-12T21:36:18.328Z,99.90
2022-10-12T21:39:10.208Z,99.90
2022-10-12T21:41:58.677Z,99.90
2022-10-12T21:44:48.441Z,99.90
2022-10-12T21:47:36.861Z,99.90
2022-10-12T21:50:25.240Z,99.90
2022-10-12T21:53:14.263Z,99.90
2022-10-12T21:56:07.497Z,99.90
2022-10-12T21:58:57.930Z,99.90
2022-10-12T22:01:47.673Z,99.90
2022-10-12T22:04:36.091Z,99.90
2022-10-12T22:07:24.557Z,99.90
2022-10-12T22:10:13.005Z,99.90
2022-10-12T22:13:01.346Z,99.90
2022-10-12T22:16:03.183Z,99.90
2022-10-12T22:18:52.916Z,99.90
2022-10-12T22:21:43.803Z,99.90
2022-10-12T22:24:32.368Z,99.90
2022-10-12T22:27:20.808Z,99.90
2022-10-12T22:30:10.040Z,99.90
2022-10-12T22:32:58.443Z,99.90
2022-10-12T22:35:55.415Z,99.90
2022-10-12T22:38:43.798Z,99.90
2022-10-12T22:41:35.128Z,99.90
2022-10-12T22:44:23.475Z,99.90
2022-10-12T22:47:15.625Z,99.90
2022-10-12T22:50:04.013Z,99.90
2022-10-12T22:52:53.697Z,99.90
2022-10-12T22:55:42.054Z,99.90
2022-10-12T22:58:30.443Z,99.90
2022-10-12T23:01:18.819Z,99.90
2022-10-12T23:04:07.997Z,99.90
2022-10-12T23:06:56.373Z,99.90
2022-10-12T23:09:49.216Z,99.90
2022-10-12T23:12:37.595Z,99.90
2022-10-12T23:15:25.939Z,99.90
2022-10-12T23:18:14.279Z,99.90
2022-10-12T23:21:05.352Z,99.90
2022-10-12T23:23:53.701Z,99.90
2022-10-12T23:26:43.404Z,99.90
2022-10-12T23:29:31.786Z,99.90
2022-10-12T23:32:20.453Z,99.90
2022-10-12T23:35:09.706Z,99.90
2022-10-12T23:37:58.036Z,99.90
2022-10-12T23:40:46.997Z,99.90
2022-10-12T23:43:36.747Z,99.90
2022-10-12T23:46:25.167Z,99.90
2022-10-12T23:49:15.394Z,99.90
2022-10-12T23:52:03.755Z,99.90
2022-10-12T23:54:52.098Z,99.90
2022-10-12T23:57:47.049Z,99.90
